createdAt,value
2024-05-09T00:01:54.646Z,56.61
2024-05-09T00:06:57.282Z,57.73
2024-05-09T00:12:00.142Z,59.14
2024-05-09T00:17:03.302Z,59.75
2024-05-09T00:22:06.057Z,60.96
2024-05-09T00:27:11.284Z,68.68
2024-05-09T00:32:14.661Z,65.45
2024-05-09T00:37:17.428Z,58.54
2024-05-09T00:42:20.109Z,56.41
2024-05-09T00:47:24.166Z,58.67
2024-05-09T00:52:28.121Z,59.98
2024-05-09T00:57:30.774Z,61.18
2024-05-09T01:02:33.692Z,68.03
2024-05-09T01:07:37.059Z,64.97
2024-05-09T01:12:39.709Z,58.31
2024-05-09T01:17:42.678Z,56.89
2024-05-09T01:22:45.472Z,58.47
2024-05-09T01:27:48.130Z,60.45
2024-05-09T01:32:51.056Z,67.19
2024-05-09T01:37:54.228Z,63.97
2024-05-09T01:42:56.965Z,57.69
2024-05-09T01:47:59.978Z,58.86
2024-05-09T01:53:02.958Z,61.42
2024-05-09T01:58:06.080Z,67.61
2024-05-09T02:03:11.573Z,63.81
2024-05-09T02:08:19.455Z,58.13
2024-05-09T02:13:22.495Z,58.55
2024-05-09T02:18:25.187Z,62.11
2024-05-09T02:23:27.989Z,67.18
2024-05-09T02:28:30.840Z,61.47
2024-05-09T02:33:33.898Z,56.56
2024-05-09T02:38:37.297Z,59.64
2024-05-09T02:43:40.298Z,65.97
2024-05-09T02:48:43.464Z,62.67
2024-05-09T02:53:46.226Z,57.29
2024-05-09T02:58:48.975Z,59.84
2024-05-09T03:03:52.327Z,64.85
2024-05-09T03:08:55.194Z,65.02
2024-05-09T03:13:57.945Z,58.06
2024-05-09T03:19:00.792Z,57.39
2024-05-09T03:24:03.592Z,60.14
2024-05-09T03:29:06.239Z,62.66
2024-05-09T03:34:11.103Z,67.79
2024-05-09T03:39:13.866Z,61.02
2024-05-09T03:44:16.547Z,56.21
2024-05-09T03:49:19.292Z,58.87
2024-05-09T03:54:22.388Z,61.50
2024-05-09T03:59:25.042Z,67.06
2024-05-09T04:04:27.838Z,61.84
2024-05-09T04:09:30.470Z,55.68
2024-05-09T04:14:33.655Z,58.09
2024-05-09T04:19:36.523Z,60.08
2024-05-09T04:24:39.253Z,61.48
2024-05-09T04:29:41.860Z,65.98
2024-05-09T04:34:44.594Z,55.47
2024-05-09T04:39:47.213Z,44.33
2024-05-09T04:44:49.851Z,38.37
2024-05-09T04:49:52.541Z,33.16
2024-05-09T04:54:56.898Z,29.96
2024-05-09T05:00:02.999Z,29.66
2024-05-09T05:05:06.991Z,33.54
2024-05-09T05:10:14.864Z,37.60
2024-05-09T05:15:23.788Z,40.56
2024-05-09T05:20:32.861Z,43.26
2024-05-09T05:25:37.868Z,45.58
2024-05-09T05:30:41.468Z,47.15
2024-05-09T05:35:45.257Z,47.98
2024-05-09T05:40:48.115Z,47.98
2024-05-09T05:45:51.151Z,48.63
2024-05-09T05:50:53.813Z,49.46
2024-05-09T05:55:56.665Z,49.70
2024-05-09T06:00:59.403Z,49.08
2024-05-09T06:06:04.170Z,48.94
2024-05-09T06:11:07.781Z,48.12
2024-05-09T06:16:11.608Z,47.40
2024-05-09T06:21:17.733Z,48.26
2024-05-09T06:26:21.085Z,47.50
2024-05-09T06:31:26.684Z,44.99
2024-05-09T06:36:30.019Z,37.83
2024-05-09T06:41:38.432Z,30.82
2024-05-09T06:46:42.008Z,28.77
2024-05-09T06:51:44.970Z,23.13
2024-05-09T06:56:49.709Z,21.09
2024-05-09T07:01:52.714Z,20.43
2024-05-09T07:06:59.012Z,19.84
2024-05-09T07:12:02.211Z,19.56
2024-05-09T07:17:05.467Z,19.23
2024-05-09T07:22:09.702Z,19.32
2024-05-09T07:27:13.149Z,20.88
2024-05-09T07:32:16.515Z,23.11
2024-05-09T07:37:19.342Z,23.43
2024-05-09T07:42:24.787Z,22.38
2024-05-09T07:53:33.083Z,20.37
2024-05-09T07:57:56.615Z,21.65
2024-05-09T08:02:59.521Z,19.00
2024-05-09T08:08:02.670Z,18.93
2024-05-09T08:13:05.645Z,18.44
2024-05-09T08:18:09.924Z,18.48
2024-05-09T08:23:12.862Z,17.32
2024-05-09T08:28:16.824Z,18.28
2024-05-09T08:33:19.684Z,18.05
2024-05-09T08:38:22.969Z,18.75
2024-05-09T08:43:29.069Z,18.10
2024-05-09T08:48:34.503Z,19.36
2024-05-09T08:53:37.646Z,17.89
2024-05-09T08:58:41.936Z,18.58
2024-05-09T09:03:44.988Z,19.53
2024-05-09T09:08:48.755Z,19.80
2024-05-09T09:13:51.485Z,19.61
2024-05-09T09:18:57.735Z,19.52
2024-05-09T09:24:01.297Z,20.86
2024-05-09T09:29:04.344Z,22.52
2024-05-09T09:34:09.539Z,24.55
2024-05-09T09:39:16.598Z,25.43
2024-05-09T09:44:23.565Z,26.08
2024-05-09T09:49:27.826Z,27.69
2024-05-09T09:54:30.831Z,28.65
2024-05-09T09:59:35.741Z,29.06
2024-05-09T10:04:38.599Z,29.94
2024-05-09T10:09:42.416Z,30.55
2024-05-09T10:14:45.820Z,30.94
2024-05-09T10:19:48.843Z,31.60
2024-05-09T10:24:53.400Z,31.72
2024-05-09T10:29:58.286Z,32.58
2024-05-09T10:35:05.430Z,32.70
2024-05-09T10:40:14.241Z,33.34
2024-05-09T10:45:26.289Z,33.65
2024-05-09T10:50:34.380Z,33.69
2024-05-09T10:55:37.494Z,33.67
2024-05-09T11:00:47.924Z,34.76
2024-05-09T11:05:56.039Z,34.16
2024-05-09T11:11:00.062Z,34.28
2024-05-09T11:16:04.680Z,34.36
2024-05-09T11:21:13.975Z,34.73
2024-05-09T11:26:19.335Z,34.99
2024-05-09T11:31:22.376Z,34.55
2024-05-09T11:36:26.143Z,35.17
2024-05-09T11:41:30.990Z,35.36
2024-05-09T11:46:33.864Z,35.71
2024-05-09T11:51:36.780Z,36.12
2024-05-09T11:56:39.509Z,36.60
2024-05-09T12:01:42.272Z,36.92
2024-05-09T12:06:46.073Z,36.50
2024-05-09T12:11:48.962Z,37.19
2024-05-09T12:16:51.725Z,37.62
2024-05-09T12:21:54.495Z,37.29
2024-05-09T12:26:57.749Z,37.25
2024-05-09T12:32:00.466Z,37.20
2024-05-09T12:37:04.693Z,37.53
2024-05-09T12:42:09.782Z,37.55
2024-05-09T12:47:13.739Z,37.46
2024-05-09T12:52:16.755Z,37.67
2024-05-09T12:57:20.003Z,37.75
2024-05-09T13:02:22.992Z,37.64
2024-05-09T13:07:25.865Z,37.80
2024-05-09T13:12:28.575Z,37.47
2024-05-09T13:17:31.659Z,37.76
2024-05-09T13:22:34.960Z,38.12
2024-05-09T13:27:39.757Z,37.64
2024-05-09T13:32:42.814Z,37.73
2024-05-09T13:37:46.246Z,37.95
2024-05-09T13:42:49.013Z,38.00
2024-05-09T13:47:52.059Z,38.24
2024-05-09T13:52:55.927Z,38.15
2024-05-09T13:57:58.785Z,38.06
2024-05-09T14:03:04.175Z,38.07
2024-05-09T14:08:08.793Z,37.80
2024-05-09T14:13:11.926Z,38.02
2024-05-09T14:18:15.597Z,37.96
2024-05-09T14:23:18.828Z,37.84
2024-05-09T14:28:24.767Z,37.81
2024-05-09T14:33:27.549Z,38.18
2024-05-09T14:38:30.480Z,37.92
2024-05-09T14:43:36.549Z,37.97
2024-05-09T14:48:42.589Z,37.80
2024-05-09T14:53:45.681Z,37.54
2024-05-09T14:58:48.621Z,37.44
2024-05-09T15:03:52.272Z,37.59
2024-05-09T15:08:57.475Z,38.00
2024-05-09T15:14:00.133Z,38.29
2024-05-09T15:19:04.817Z,39.28
2024-05-09T15:24:07.530Z,38.84
2024-05-09T15:29:10.435Z,38.97
2024-05-09T15:34:13.171Z,38.64
2024-05-09T15:39:15.879Z,37.75
2024-05-09T15:44:19.928Z,38.11
2024-05-09T15:49:22.905Z,38.60
2024-05-09T15:54:27.713Z,39.00
2024-05-09T15:59:30.444Z,39.35
2024-05-09T16:04:33.312Z,39.54
2024-05-09T16:09:36.279Z,39.71
2024-05-09T16:14:39.419Z,40.28
2024-05-09T16:19:43.623Z,41.25
2024-05-09T16:24:46.352Z,41.19
2024-05-09T16:29:49.052Z,40.54
2024-05-09T16:34:52.407Z,40.73
2024-05-09T16:39:55.193Z,41.05
2024-05-09T16:44:58.292Z,41.09
2024-05-09T16:50:00.893Z,41.31
2024-05-09T16:55:04.168Z,41.34
2024-05-09T17:00:14.863Z,41.56
2024-05-09T17:05:24.793Z,42.35
2024-05-09T17:10:32.802Z,42.69
2024-05-09T17:15:40.270Z,42.49
2024-05-09T17:20:43.087Z,42.38
2024-05-09T17:25:48.094Z,42.53
2024-05-09T17:30:51.210Z,43.63
2024-05-09T17:35:53.996Z,43.63
2024-05-09T17:40:58.178Z,43.72
2024-05-09T17:46:01.185Z,45.36
2024-05-09T17:51:04.224Z,45.00
2024-05-09T17:56:09.321Z,45.17
2024-05-09T18:01:12.558Z,45.48
2024-05-09T18:06:16.807Z,45.63
2024-05-09T18:11:19.756Z,45.65
2024-05-09T18:16:23.283Z,45.88
2024-05-09T18:21:27.212Z,46.28
2024-05-09T18:26:40.857Z,46.69
2024-05-09T18:31:43.635Z,46.99
2024-05-09T18:36:46.646Z,47.39
2024-05-09T18:41:49.443Z,47.67
2024-05-09T18:46:52.202Z,48.13
2024-05-09T18:51:54.905Z,48.68
2024-05-09T18:57:00.778Z,49.04
2024-05-09T19:02:04.234Z,49.26
2024-05-09T19:07:09.453Z,48.30
2024-05-09T19:12:14.622Z,49.91
2024-05-09T19:17:25.003Z,50.38
2024-05-09T19:22:28.506Z,50.11
2024-05-09T19:27:31.586Z,50.30
2024-05-09T19:32:34.435Z,51.34
2024-05-09T19:37:41.443Z,50.84
2024-05-09T19:42:45.578Z,52.30
2024-05-09T19:47:48.529Z,52.11
2024-05-09T19:52:51.933Z,52.39
2024-05-09T19:57:54.670Z,52.36
2024-05-09T20:02:57.481Z,52.93
2024-05-09T20:08:01.232Z,53.17
2024-05-09T20:13:06.987Z,53.60
2024-05-09T20:18:10.898Z,54.60
2024-05-09T20:23:14.051Z,54.38
2024-05-09T20:28:20.974Z,54.22
2024-05-09T20:33:23.774Z,54.39
2024-05-09T20:38:26.550Z,54.61
2024-05-09T20:43:29.429Z,54.83
2024-05-09T20:48:34.276Z,55.29
2024-05-09T20:53:37.484Z,55.64
2024-05-09T20:58:42.503Z,55.75
2024-05-09T21:03:45.294Z,56.20
2024-05-09T21:08:49.521Z,56.32
2024-05-09T21:13:52.721Z,56.68
2024-05-09T21:18:55.399Z,57.61
2024-05-09T21:23:59.517Z,58.61
2024-05-09T21:29:02.348Z,58.79
2024-05-09T21:34:05.174Z,57.70
2024-05-09T21:39:10.318Z,57.56
2024-05-09T21:44:12.984Z,57.40
2024-05-09T21:49:17.297Z,57.56
2024-05-09T21:54:20.177Z,57.63
2024-05-09T21:59:22.834Z,57.72
2024-05-09T22:04:25.670Z,63.20
2024-05-09T22:09:28.431Z,67.47
2024-05-09T22:14:31.123Z,60.34
2024-05-09T22:19:33.945Z,54.80
2024-05-09T22:24:36.984Z,56.06
2024-05-09T22:29:39.743Z,57.26
2024-05-09T22:34:42.496Z,57.57
2024-05-09T22:39:45.487Z,58.17
2024-05-09T22:44:48.180Z,58.42
2024-05-09T22:49:50.874Z,58.80
2024-05-09T22:54:53.523Z,59.93
2024-05-09T22:59:56.251Z,59.38
2024-05-09T23:04:59.036Z,60.31
2024-05-09T23:10:01.923Z,60.41
2024-05-09T23:15:06.088Z,60.36
2024-05-09T23:20:11.590Z,60.44
2024-05-09T23:25:14.753Z,60.62
2024-05-09T23:30:28.406Z,61.06
2024-05-09T23:35:37.162Z,61.20
2024-05-09T23:40:41.615Z,61.42
2024-05-09T23:45:45.619Z,68.94
2024-05-09T23:50:49.670Z,65.33
2024-05-09T23:55:52.347Z,56.60
